Pagadder — ONIZ — position and weather

sailwx.info

Track history (hours):
 
Tides and Currents Weather Stations Pressure Air Temp Water Temp Dewpoint Dewpoint Depression Visibility Wind Speed Wind Dir Waves Ship Positions

Pagadder

Last reported at 2018-Jul-09 15:12 UTC. Time now 2018-Jul-18 02:46 UTC.
Position N 37°17' E 011°30'.
Warning: this ship's position is 8 days out of date.

Length 89 m; draft 6.3 m.

Type: Ship. MMSI: 205723000.

Date/timePositionNaut miles runAvg speedWind from/ knotsBaromVisibWave heightAir tempDewpointWater temp
2018-Jul-09 15:12N 37°17' E 011°30'211.1
2018-Jul-09 15:00N 37°18' E 011°27'35910.7
2018-Jul-08 05:24N 37°12' E 003°55'5 9.4
2018-Jul-08 04:52N 37°12' E 003°49'3 9.5
2018-Jul-08 04:30N 37°11' E 003°45'26 9.4
2018-Jul-08 01:43N 37°06' E 003°12'3 9.3
2018-Jul-08 01:20N 37°06' E 003°08'3 9.4
2018-Jul-08 01:00N 37°05' E 003°04'5 9.6
2018-Jul-08 00:30N 37°05' E 002°58'6 9.7
2018-Jul-07 23:52N 37°04' E 002°51'5 9.9
2018-Jul-07 23:22N 37°03' E 002°45'2710.4
2018-Jul-07 20:47N 36°58' E 002°11'310.2
2018-Jul-07 20:30N 36°57' E 002°08'36211.0
2018-Jul-06 11:34N 35°55' W 005°15'111.4
2018-Jul-06 11:30N 35°55' W 005°16'3 5.1
2018-Jul-06 11:00N 35°54' W 005°18'0 0.0
2018-Jul-06 10:29N 35°54' W 005°18'0 0.0
2018-Jul-06 09:59N 35°54' W 005°18'0 0.0
2018-Jul-06 09:29N 35°54' W 005°18'0 0.0
2018-Jul-06 08:59N 35°54' W 005°18'0 0.0
2018-Jul-06 08:28N 35°54' W 005°18'0 0.0
2018-Jul-06 07:58N 35°54' W 005°18'0 0.6
2018-Jul-06 07:30N 35°54' W 005°19'1 2.8
2018-Jul-06 07:00N 35°55' W 005°20'3 5.7
2018-Jul-06 06:30N 35°56' W 005°23'510.3
2018-Jul-06 06:00N 35°56' W 005°29'611.5
2018-Jul-06 05:26N 35°54' W 005°37'510.7
2018-Jul-06 04:59N 35°54' W 005°43'  
2018-Jul-02 03:31N 49°41' W 003°51'012.6
2018-Jul-02 03:30N 49°41' W 003°51'612.6
2018-Jul-02 03:00N 49°44' W 003°42'612.7
2018-Jul-02 02:30N 49°47' W 003°34'612.7
2018-Jul-02 02:00N 49°50' W 003°25'612.4
2018-Jul-02 01:30N 49°53' W 003°17'611.9
2018-Jul-02 01:01N 49°56' W 003°09'611.5
2018-Jul-02 00:30N 49°60' W 003°02'611.0
2018-Jul-02 00:00N 50°02' W 002°54'510.6
2018-Jul-01 23:31N 50°03' W 002°46'510.1
2018-Jul-01 23:01N 50°05' W 002°38'5 9.5
2018-Jul-01 22:29N 50°06' W 002°31'6310.8
2018-Jul-01 16:40N 50°23' W 000°56'314.7
2018-Jul-01 16:28N 50°24' W 000°52'714.2
2018-Jul-01 16:00N 50°26' W 000°42'1013.6
2018-Jul-01 15:17N 50°28' W 000°27'1812.6
2018-Jul-01 13:52N 50°33' E 000°00'511.8
2018-Jul-01 13:27N 50°35' E 000°08'511.4
2018-Jul-01 12:59N 50°36' E 000°16'510.9
2018-Jul-01 12:30N 50°37' E 000°24'510.5
2018-Jul-01 12:00N 50°39' E 000°32'510.2
2018-Jul-01 11:30N 50°41' E 000°39'510.4
2018-Jul-01 11:00N 50°44' E 000°45'611.0
2018-Jul-01 10:30N 50°47' E 000°53'611.4
2018-Jul-01 10:00N 50°51' E 000°60'612.3
2018-Jul-01 09:30N 50°54' E 001°08'713.2
2018-Jul-01 09:00N 50°59' E 001°16'714.1
2018-Jul-01 08:30N 51°03' E 001°24'714.5
2018-Jul-01 08:00N 51°08' E 001°33'713.6
2018-Jul-01 07:31N 51°12' E 001°41'612.3
2018-Jul-01 07:00N 51°17' E 001°47'611.6
2018-Jul-01 06:31N 51°22' E 001°52'510.8
2018-Jul-01 06:01N 51°27' E 001°56'5 9.9
2018-Jul-01 05:30N 51°30' E 002°02'5 9.8
2018-Jul-01 05:00N 51°34' E 002°07'5 9.6
2018-Jul-01 04:31N 51°38' E 002°12'5 9.6
2018-Jul-01 04:00N 51°41' E 002°17'5 9.3
2018-Jul-01 03:30N 51°45' E 002°22'5 9.4
2018-Jul-01 03:01N 51°48' E 002°27'5 9.5
2018-Jul-01 02:30N 51°52' E 002°32'5 9.9
2018-Jul-01 02:00N 51°56' E 002°37'510.4
2018-Jul-01 01:30N 51°60' E 002°42'611.0
2018-Jul-01 01:00N 52°04' E 002°48'611.5
2018-Jul-01 00:30N 52°09' E 002°53'612.0
2018-Jul-01 00:01N 52°14' E 002°59'612.3
2018-Jun-30 23:31N 52°19' E 003°05'612.4
2018-Jun-30 23:01N 52°24' E 003°11'612.4
2018-Jun-30 22:30N 52°29' E 003°17'612.5
2018-Jun-30 22:00N 52°33' E 003°24'612.3
2018-Jun-30 21:31N 52°38' E 003°30'612.1
2018-Jun-30 21:01N 52°43' E 003°37'611.6
2018-Jun-30 20:30N 52°47' E 003°43'611.1
2018-Jun-30 19:56N 52°52' E 003°49'510.7
2018-Jun-30 19:30N 52°56' E 003°55'510.4
2018-Jun-30 18:58N 52°59' E 004°01'4710.5
2018-Jun-30 14:27N 53°32' E 004°58'812.5
2018-Jun-30 13:51N 53°35' E 005°10'612.5
2018-Jun-30 13:23N 53°37' E 005°20'512.3
2018-Jun-30 12:59N 53°38' E 005°27'712.1
2018-Jun-30 12:25N 53°40' E 005°38'611.6
2018-Jun-30 11:56N 53°42' E 005°47'511.2
2018-Jun-30 11:29N 53°44' E 005°55'44 9.8
2018-Jun-30 07:03N 53°55' E 007°07'311.0
2018-Jun-30 06:48N 53°56' E 007°11'411.3
2018-Jun-30 06:29N 53°57' E 007°17'611.7
2018-Jun-30 05:59N 53°58' E 007°26'711.8
2018-Jun-30 05:23N 53°59' E 007°39'511.5
2018-Jun-30 04:58N 53°56' E 007°43'2111.5
2018-Jun-30 03:09N 53°45' E 008°13'213.0
2018-Jun-30 02:59N 53°43' E 008°17'612.1
2018-Jun-30 02:30N 53°39' E 008°24'510.7
2018-Jun-30 02:01N 53°36' E 008°31'4 8.4
2018-Jun-30 01:30N 53°32' E 008°34'4 7.6
2018-Jun-30 01:00N 53°29' E 008°30'4 8.5
2018-Jun-30 00:30N 53°25' E 008°30'4 8.7
2018-Jun-30 00:01N 53°21' E 008°30'4 8.2
2018-Jun-29 23:30N 53°17' E 008°29'4 7.8
2018-Jun-29 23:01N 53°13' E 008°30'4 7.2
2018-Jun-29 22:31N 53°11' E 008°34'4 7.7
2018-Jun-29 22:01N 53°08' E 008°39'2 4.8
2018-Jun-29 21:31N 53°07' E 008°43'0 0.2
2018-Jun-29 21:00N 53°07' E 008°43'0 0.4
2018-Jun-29 20:31N 53°07' E 008°43'0 0.0
2018-Jun-29 19:58N 53°07' E 008°43'0 0.0
2018-Jun-29 19:28N 53°07' E 008°43'0 0.0
2018-Jun-29 18:58N 53°07' E 008°43'0 0.0
2018-Jun-29 18:28N 53°07' E 008°43'0 0.0
2018-Jun-29 18:00N 53°07' E 008°43'0 0.0
2018-Jun-29 17:30N 53°07' E 008°43'0 0.0
2018-Jun-29 17:00N 53°07' E 008°43'0 0.0
2018-Jun-29 16:30N 53°07' E 008°43'0 0.0
2018-Jun-29 15:59N 53°07' E 008°43'0 0.0
2018-Jun-29 15:29N 53°07' E 008°43'  
Track history (hours):
 
Tides and Currents Weather Stations Pressure Air Temp Water Temp Dewpoint Dewpoint Depression Visibility Wind Speed Wind Dir Waves Ship Positions

Pagadder

Last reported at 2018-Jul-09 15:12 UTC. Time now 2018-Jul-18 02:46 UTC.
Position N 37°17' E 011°30'.
Warning: this ship's position is 8 days out of date.

Length 89 m; draft 6.3 m.

Type: Ship. MMSI: 205723000.

Date/timePositionNaut miles runAvg speedWind from/ knotsBaromVisibWave heightAir tempDewpointWater temp
2018-Jul-09 15:12N 37°17' E 011°30'211.1
2018-Jul-09 15:00N 37°18' E 011°27'35910.7
2018-Jul-08 05:24N 37°12' E 003°55'5 9.4
2018-Jul-08 04:52N 37°12' E 003°49'3 9.5
2018-Jul-08 04:30N 37°11' E 003°45'26 9.4
2018-Jul-08 01:43N 37°06' E 003°12'3 9.3
2018-Jul-08 01:20N 37°06' E 003°08'3 9.4
2018-Jul-08 01:00N 37°05' E 003°04'5 9.6
2018-Jul-08 00:30N 37°05' E 002°58'6 9.7
2018-Jul-07 23:52N 37°04' E 002°51'5 9.9
2018-Jul-07 23:22N 37°03' E 002°45'2710.4
2018-Jul-07 20:47N 36°58' E 002°11'310.2
2018-Jul-07 20:30N 36°57' E 002°08'36211.0
2018-Jul-06 11:34N 35°55' W 005°15'111.4
2018-Jul-06 11:30N 35°55' W 005°16'3 5.1
2018-Jul-06 11:00N 35°54' W 005°18'0 0.0
2018-Jul-06 10:29N 35°54' W 005°18'0 0.0
2018-Jul-06 09:59N 35°54' W 005°18'0 0.0
2018-Jul-06 09:29N 35°54' W 005°18'0 0.0
2018-Jul-06 08:59N 35°54' W 005°18'0 0.0
2018-Jul-06 08:28N 35°54' W 005°18'0 0.0
2018-Jul-06 07:58N 35°54' W 005°18'0 0.6
2018-Jul-06 07:30N 35°54' W 005°19'1 2.8
2018-Jul-06 07:00N 35°55' W 005°20'3 5.7
2018-Jul-06 06:30N 35°56' W 005°23'510.3
2018-Jul-06 06:00N 35°56' W 005°29'611.5
2018-Jul-06 05:26N 35°54' W 005°37'510.7
2018-Jul-06 04:59N 35°54' W 005°43'  
2018-Jul-02 03:31N 49°41' W 003°51'012.6
2018-Jul-02 03:30N 49°41' W 003°51'612.6
2018-Jul-02 03:00N 49°44' W 003°42'612.7
2018-Jul-02 02:30N 49°47' W 003°34'612.7
2018-Jul-02 02:00N 49°50' W 003°25'612.4
2018-Jul-02 01:30N 49°53' W 003°17'611.9
2018-Jul-02 01:01N 49°56' W 003°09'611.5
2018-Jul-02 00:30N 49°60' W 003°02'611.0
2018-Jul-02 00:00N 50°02' W 002°54'510.6
2018-Jul-01 23:31N 50°03' W 002°46'510.1
2018-Jul-01 23:01N 50°05' W 002°38'5 9.5
2018-Jul-01 22:29N 50°06' W 002°31'6310.8
2018-Jul-01 16:40N 50°23' W 000°56'314.7
2018-Jul-01 16:28N 50°24' W 000°52'714.2
2018-Jul-01 16:00N 50°26' W 000°42'1013.6
2018-Jul-01 15:17N 50°28' W 000°27'1812.6
2018-Jul-01 13:52N 50°33' E 000°00'511.8
2018-Jul-01 13:27N 50°35' E 000°08'511.4
2018-Jul-01 12:59N 50°36' E 000°16'510.9
2018-Jul-01 12:30N 50°37' E 000°24'510.5
2018-Jul-01 12:00N 50°39' E 000°32'510.2
2018-Jul-01 11:30N 50°41' E 000°39'510.4
2018-Jul-01 11:00N 50°44' E 000°45'611.0
2018-Jul-01 10:30N 50°47' E 000°53'611.4
2018-Jul-01 10:00N 50°51' E 000°60'612.3
2018-Jul-01 09:30N 50°54' E 001°08'713.2
2018-Jul-01 09:00N 50°59' E 001°16'714.1
2018-Jul-01 08:30N 51°03' E 001°24'714.5
2018-Jul-01 08:00N 51°08' E 001°33'713.6
2018-Jul-01 07:31N 51°12' E 001°41'612.3
2018-Jul-01 07:00N 51°17' E 001°47'611.6
2018-Jul-01 06:31N 51°22' E 001°52'510.8
2018-Jul-01 06:01N 51°27' E 001°56'5 9.9
2018-Jul-01 05:30N 51°30' E 002°02'5 9.8
2018-Jul-01 05:00N 51°34' E 002°07'5 9.6
2018-Jul-01 04:31N 51°38' E 002°12'5 9.6
2018-Jul-01 04:00N 51°41' E 002°17'5 9.3
2018-Jul-01 03:30N 51°45' E 002°22'5 9.4
2018-Jul-01 03:01N 51°48' E 002°27'5 9.5
2018-Jul-01 02:30N 51°52' E 002°32'5 9.9
2018-Jul-01 02:00N 51°56' E 002°37'510.4
2018-Jul-01 01:30N 51°60' E 002°42'611.0
2018-Jul-01 01:00N 52°04' E 002°48'611.5
2018-Jul-01 00:30N 52°09' E 002°53'612.0
2018-Jul-01 00:01N 52°14' E 002°59'612.3
2018-Jun-30 23:31N 52°19' E 003°05'612.4
2018-Jun-30 23:01N 52°24' E 003°11'612.4
2018-Jun-30 22:30N 52°29' E 003°17'612.5
2018-Jun-30 22:00N 52°33' E 003°24'612.3
2018-Jun-30 21:31N 52°38' E 003°30'612.1
2018-Jun-30 21:01N 52°43' E 003°37'611.6
2018-Jun-30 20:30N 52°47' E 003°43'611.1
2018-Jun-30 19:56N 52°52' E 003°49'510.7
2018-Jun-30 19:30N 52°56' E 003°55'510.4
2018-Jun-30 18:58N 52°59' E 004°01'4710.5
2018-Jun-30 14:27N 53°32' E 004°58'812.5
2018-Jun-30 13:51N 53°35' E 005°10'612.5
2018-Jun-30 13:23N 53°37' E 005°20'512.3
2018-Jun-30 12:59N 53°38' E 005°27'712.1
2018-Jun-30 12:25N 53°40' E 005°38'611.6
2018-Jun-30 11:56N 53°42' E 005°47'511.2
2018-Jun-30 11:29N 53°44' E 005°55'44 9.8
2018-Jun-30 07:03N 53°55' E 007°07'311.0
2018-Jun-30 06:48N 53°56' E 007°11'411.3
2018-Jun-30 06:29N 53°57' E 007°17'611.7
2018-Jun-30 05:59N 53°58' E 007°26'711.8
2018-Jun-30 05:23N 53°59' E 007°39'511.5
2018-Jun-30 04:58N 53°56' E 007°43'2111.5
2018-Jun-30 03:09N 53°45' E 008°13'213.0
2018-Jun-30 02:59N 53°43' E 008°17'612.1
2018-Jun-30 02:30N 53°39' E 008°24'510.7
2018-Jun-30 02:01N 53°36' E 008°31'4 8.4
2018-Jun-30 01:30N 53°32' E 008°34'4 7.6
2018-Jun-30 01:00N 53°29' E 008°30'4 8.5
2018-Jun-30 00:30N 53°25' E 008°30'4 8.7
2018-Jun-30 00:01N 53°21' E 008°30'4 8.2
2018-Jun-29 23:30N 53°17' E 008°29'4 7.8
2018-Jun-29 23:01N 53°13' E 008°30'4 7.2
2018-Jun-29 22:31N 53°11' E 008°34'4 7.7
2018-Jun-29 22:01N 53°08' E 008°39'2 4.8
2018-Jun-29 21:31N 53°07' E 008°43'0 0.2
2018-Jun-29 21:00N 53°07' E 008°43'0 0.4
2018-Jun-29 20:31N 53°07' E 008°43'0 0.0
2018-Jun-29 19:58N 53°07' E 008°43'0 0.0
2018-Jun-29 19:28N 53°07' E 008°43'0 0.0
2018-Jun-29 18:58N 53°07' E 008°43'0 0.0
2018-Jun-29 18:28N 53°07' E 008°43'0 0.0
2018-Jun-29 18:00N 53°07' E 008°43'0 0.0
2018-Jun-29 17:30N 53°07' E 008°43'0 0.0
2018-Jun-29 17:00N 53°07' E 008°43'0 0.0
2018-Jun-29 16:30N 53°07' E 008°43'0 0.0
2018-Jun-29 15:59N 53°07' E 008°43'0 0.0
2018-Jun-29 15:29N 53°07' E 008°43'  

Dump ship's entire track history